Time;durP1;ratioP1;P1;durP2;ratioP2;P2;SDS_P1;SDS_P2;PMS_P1;PMS_P2;Temp;Humidity;BMP_temperature;BMP_pressure;BME280_temperature;BME280_humidity;BME280_pressure;Samples;Min_cycle;Max_cycle;Signal;HPM_P1;HPM_P2
2021/12/24 00:03:05;;;;;;;47.50;42.35;;;;;;;19.51;46.33;95628.66;10352420;28;20061;-50
2021/12/24 00:08:25;;;;;;;45.53;40.67;;;;;;;19.50;46.40;95611.69;10354672;28;20062;-50
2021/12/24 00:13:48;;;;;;;47.28;41.22;;;;;;;19.48;46.36;95595.03;10353393;28;20054;-49
2021/12/24 00:19:16;;;;;;;46.63;41.28;;;;;;;19.46;46.14;95572.97;10365687;28;20053;-50
2021/12/24 00:35:52;;;;;;;45.17;40.35;;;;;;;19.43;46.44;95554.03;10354366;28;20049;-53
2021/12/24 00:41:13;;;;;;;47.38;42.13;;;;;;;19.42;46.48;95555.13;10340067;28;20050;-50
2021/12/24 00:46:34;;;;;;;45.83;41.05;;;;;;;19.41;46.59;95564.41;10337061;28;20054;-51
2021/12/24 00:52:06;;;;;;;46.40;41.53;;;;;;;19.40;46.51;95552.78;10351236;28;20054;-51
2021/12/24 00:57:26;;;;;;;45.45;40.85;;;;;;;19.39;46.57;95545.84;10368268;28;20076;-51
2021/12/24 01:02:47;;;;;;;46.90;41.17;;;;;;;19.37;46.42;95542.72;10380823;28;20060;-50
2021/12/24 01:08:09;;;;;;;45.92;41.17;;;;;;;19.35;46.55;95553.09;10354709;28;20050;-50
2021/12/24 01:13:29;;;;;;;47.38;41.97;;;;;;;19.35;46.49;95555.78;10345911;28;20045;-50
2021/12/24 01:19:08;;;;;;;46.50;41.63;;;;;;;19.32;46.43;95559.16;10360997;28;20058;-50
2021/12/24 01:24:35;;;;;;;46.80;41.85;;;;;;;19.31;46.45;95549.53;10346019;28;20058;-50
2021/12/24 01:30:08;;;;;;;45.53;40.67;;;;;;;19.30;46.54;95548.72;10360266;28;20053;-50
2021/12/24 01:41:18;;;;;;;45.80;41.10;;;;;;;19.27;46.43;95537.88;10346933;28;20065;-50
2021/12/24 01:46:38;;;;;;;43.25;38.90;;;;;;;19.25;46.14;95519.31;10359664;28;20052;-50
2021/12/24 01:52:02;;;;;;;45.67;41.17;;;;;;;19.24;45.94;95516.97;10344218;28;20480;-50
2021/12/24 01:57:21;;;;;;;44.58;40.10;;;;;;;19.22;45.81;95505.72;10344993;28;20109;-52
2021/12/24 02:02:41;;;;;;;43.13;38.63;;;;;;;19.19;45.95;95487.53;10344175;28;20049;-50
2021/12/24 02:08:02;;;;;;;43.03;38.65;;;;;;;19.16;45.73;95460.09;10357871;28;20054;-52
2021/12/24 02:13:22;;;;;;;44.72;40.08;;;;;;;19.15;45.88;95458.56;10343971;28;20054;-51
2021/12/24 02:29:59;;;;;;;43.30;38.90;;;;;;;19.11;45.88;95411.81;10344158;28;20502;-50
2021/12/24 02:35:19;;;;;;;44.13;39.72;;;;;;;19.11;45.84;95405.59;10343177;28;20046;-53
2021/12/24 02:40:39;;;;;;;43.90;39.63;;;;;;;19.09;45.72;95391.69;10371833;28;20052;-50
2021/12/24 02:46:07;;;;;;;43.13;38.75;;;;;;;19.08;45.90;95380.13;10358141;28;20096;-50
2021/12/24 02:57:10;;;;;;;42.58;38.30;;;;;;;19.05;45.87;95386.25;10341727;28;20552;-49
2021/12/24 03:02:30;;;;;;;42.10;37.70;;;;;;;19.03;45.86;95366.13;10342712;28;20050;-51
2021/12/24 03:07:50;;;;;;;42.60;38.47;;;;;;;19.02;46.07;95365.34;10356633;28;20536;-50
2021/12/24 03:13:10;;;;;;;42.38;38.17;;;;;;;19.02;46.00;95380.75;10355994;28;20042;-50
2021/12/24 03:18:32;;;;;;;40.88;36.63;;;;;;;19.00;46.02;95375.72;10340783;28;20056;-50
2021/12/24 03:29:21;;;;;;;40.97;36.92;;;;;;;18.98;45.95;95374.50;10355608;28;20050;-50
2021/12/24 03:34:41;;;;;;;40.95;36.55;;;;;;;18.95;45.73;95357.91;10341105;28;20045;-49
2021/12/24 03:40:03;;;;;;;40.75;36.78;;;;;;;18.94;45.75;95359.00;10342153;28;20103;-50
2021/12/24 03:45:33;;;;;;;39.20;35.33;;;;;;;18.92;45.76;95360.50;10339312;28;20064;-51
2021/12/24 03:51:21;;;;;;;40.97;36.88;;;;;;;18.91;45.91;95359.72;10354955;28;20052;-53
2021/12/24 03:56:40;;;;;;;39.47;35.38;;;;;;;18.90;45.68;95349.28;10339859;28;20045;-51
2021/12/24 04:02:08;;;;;;;;;;;;;;;18.89;45.82;95356.59;10340713;28;20058;-50
2021/12/24 04:07:31;;;;;;;38.88;35.00;;;;;;;18.87;45.69;95360.78;10354547;28;19921;-49
2021/12/24 04:13:25;;;;;;;38.08;34.47;;;;;;;18.85;45.69;95360.38;10252884;28;20053;-49
2021/12/24 04:19:14;;;;;;;36.75;33.20;;;;;;;18.83;45.67;95357.25;10367353;28;20057;-49
2021/12/24 04:24:53;;;;;;;37.97;34.13;;;;;;;18.83;45.86;95359.94;10339013;28;20053;-51
2021/12/24 04:30:21;;;;;;;37.70;34.05;;;;;;;18.80;45.81;95349.84;10354312;28;20038;-50
2021/12/24 04:35:56;;;;;;;36.55;32.90;;;;;;;18.80;45.75;95344.44;10348184;28;20054;-50
2021/12/24 05:03:37;;;;;;;34.22;30.88;;;;;;;18.72;45.61;95371.25;10338864;28;20050;-49
2021/12/24 05:09:05;;;;;;;32.47;29.35;;;;;;;18.73;45.76;95358.53;10375135;28;20084;-50
2021/12/24 05:14:30;;;;;;;31.98;28.98;;;;;;;18.74;45.88;95368.22;10393162;28;20050;-52
2021/12/24 05:25:45;;;;;;;32.83;29.70;;;;;;;18.69;45.91;95353.06;10378401;28;20050;-49
2021/12/24 05:31:05;;;;;;;32.97;29.75;;;;;;;18.70;45.81;95362.75;10394621;28;20093;-49
2021/12/24 05:36:25;;;;;;;33.35;30.23;;;;;;;18.68;45.96;95359.63;10399694;28;20038;-49
2021/12/24 05:41:46;;;;;;;32.95;29.83;;;;;;;18.69;45.88;95347.69;10396686;28;20064;-50
2021/12/24 05:47:06;;;;;;;31.40;28.38;;;;;;;18.69;45.87;95352.28;10399585;28;20053;-51
2021/12/24 05:52:32;;;;;;;32.50;29.35;;;;;;;18.71;46.08;95366.97;10385386;28;20045;-50
2021/12/24 05:57:59;;;;;;;30.48;27.52;;;;;;;18.72;45.84;95354.31;10397168;28;20052;-50
2021/12/24 06:03:19;;;;;;;29.92;26.92;;;;;;;18.72;45.65;95357.78;10385631;28;20409;-49
2021/12/24 06:08:38;;;;;;;30.42;27.58;;;;;;;18.75;45.75;95367.06;10372847;28;20705;-50
2021/12/24 06:13:57;;;;;;;30.63;27.73;;;;;;;18.76;45.59;95347.84;10360119;28;20054;-52
2021/12/24 06:19:17;;;;;;;29.90;27.10;;;;;;;18.78;45.53;95334.00;10357946;28;20108;-50
2021/12/24 06:24:37;;;;;;;28.92;26.23;;;;;;;18.81;45.78;95346.03;10370165;28;20640;-50
2021/12/24 06:29:57;;;;;;;30.52;27.40;;;;;;;18.84;45.51;95348.78;10357896;28;20649;-52
2021/12/24 06:35:17;;;;;;;29.90;27.08;;;;;;;18.87;45.71;95350.00;10355744;28;20053;-49
2021/12/24 06:40:36;;;;;;;28.08;25.27;;;;;;;18.92;45.87;95341.63;10358373;28;20057;-50
2021/12/24 06:45:57;;;;;;;26.90;24.35;;;;;;;18.94;45.91;95360.94;10372632;28;20042;-49
2021/12/24 06:51:16;;;;;;;27.95;25.25;;;;;;;18.97;46.14;95362.91;10359304;28;20054;-50
2021/12/24 06:56:36;;;;;;;26.13;23.63;;;;;;;18.99;46.18;95373.34;10357976;28;20428;-51
2021/12/24 07:01:59;;;;;;;25.90;23.27;;;;;;;19.01;46.47;95385.34;10354023;28;20058;-49
2021/12/24 07:07:18;;;;;;;8.32;7.53;;;;;;;18.66;42.33;95390.75;10357484;28;20068;-49
2021/12/24 07:12:38;;;;;;;5.25;4.75;;;;;;;18.34;41.69;95396.22;10358989;28;20050;-50
2021/12/24 07:17:57;;;;;;;3.42;3.13;;;;;;;18.22;41.40;95394.41;10371513;28;20038;-50
2021/12/24 07:23:17;;;;;;;6.75;6.05;;;;;;;18.36;42.27;95394.72;10358077;28;20045;-49
2021/12/24 07:28:36;;;;;;;6.28;5.72;;;;;;;18.51;42.57;95389.66;10356883;28;20054;-52
2021/12/24 07:33:56;;;;;;;6.88;6.20;;;;;;;18.61;42.63;95393.75;10370847;28;20034;-50
2021/12/24 07:39:15;;;;;;;6.47;5.88;;;;;;;18.67;42.96;95385.00;10360470;28;20061;-53
2021/12/24 07:44:35;;;;;;;6.47;5.88;;;;;;;18.73;42.99;95399.78;10358203;28;20409;-50
2021/12/24 07:50:04;;;;;;;6.43;5.93;;;;;;;18.74;43.08;95382.47;10357163;28;20049;-50
2021/12/24 07:55:24;;;;;;;6.55;5.95;;;;;;;18.77;43.42;95392.53;10355319;28;20512;-49
2021/12/24 08:00:44;;;;;;;6.55;5.95;;;;;;;18.80;43.45;95383.00;10354322;28;20085;-50
2021/12/24 08:06:05;;;;;;;6.35;5.68;;;;;;;18.81;43.48;95381.09;10349081;28;20050;-49
2021/12/24 08:11:25;;;;;;;6.13;5.53;;;;;;;18.81;43.93;95383.78;10352083;28;20505;-50
2021/12/24 08:16:44;;;;;;;8.38;5.68;;;;;;;18.81;44.25;95402.69;10355911;28;20046;-52
2021/12/24 08:22:04;;;;;;;6.25;5.75;;;;;;;18.82;44.57;95398.81;10342737;28;20050;-49
2021/12/24 08:27:24;;;;;;;6.28;5.78;;;;;;;18.87;44.97;95396.63;10332015;28;20448;-49
2021/12/24 08:32:43;;;;;;;5.90;5.30;;;;;;;18.89;45.06;95407.84;10361023;28;20104;-52
2021/12/24 08:38:03;;;;;;;5.95;5.45;;;;;;;18.91;45.23;95412.91;10363709;28;20398;-50
2021/12/24 08:43:22;;;;;;;5.40;4.90;;;;;;;18.94;45.44;95418.38;10362422;28;20567;-51
2021/12/24 08:48:42;;;;;;;6.20;5.60;;;;;;;18.96;45.83;95421.50;10343391;28;20489;-61
2021/12/24 08:54:02;;;;;;;6.28;5.10;;;;;;;19.01;45.90;95406.94;10359385;28;20049;-57
2021/12/24 08:59:23;;;;;;;5.40;4.90;;;;;;;19.03;46.15;95404.69;10352163;28;20056;-54
2021/12/24 09:04:42;;;;;;;5.47;4.97;;;;;;;19.08;46.45;95417.13;10375187;28;20053;-57
2021/12/24 09:10:04;;;;;;;5.80;5.30;;;;;;;19.13;46.43;95419.53;10347773;28;20048;-55
2021/12/24 09:15:30;;;;;;;5.43;4.93;;;;;;;19.17;46.67;95402.28;10357614;28;20049;-50
2021/12/24 09:20:49;;;;;;;5.50;5.00;;;;;;;19.21;47.00;95409.66;10361624;28;20046;-52
2021/12/24 09:26:09;;;;;;;6.20;5.45;;;;;;;19.26;47.39;95407.47;10374564;28;20045;-58
2021/12/24 09:31:29;;;;;;;6.32;5.43;;;;;;;19.33;47.09;95407.59;10363084;28;20073;-60
2021/12/24 09:36:48;;;;;;;5.82;5.00;;;;;;;19.37;46.86;95423.88;10355904;28;20049;-58
2021/12/24 09:42:09;;;;;;;5.38;4.88;;;;;;;19.41;47.03;95423.97;10368787;28;20046;-51
2021/12/24 09:47:29;;;;;;;6.47;5.05;;;;;;;19.44;46.93;95407.03;10370069;28;20382;-47
2021/12/24 09:52:49;;;;;;;6.95;4.72;;;;;;;19.50;47.19;95392.91;10368093;28;20042;-49
2021/12/24 09:58:08;;;;;;;9.85;5.78;;;;;;;19.53;47.38;95388.69;10363103;28;20050;-50
2021/12/24 10:03:33;;;;;;;8.68;5.38;;;;;;;-146.19;100.00;65364.44;10372654;28;20042;-55
2021/12/24 10:09:11;;;;;;;7.68;5.28;;;;;;;19.63;47.82;95390.03;10359734;28;20056;-61
2021/12/24 10:14:36;;;;;;;10.85;5.45;;;;;;;19.67;47.42;95371.94;10364357;28;20046;-58
2021/12/24 10:19:59;;;;;;;10.05;5.13;;;;;;;19.73;47.38;95359.72;10338977;28;20108;-56
2021/12/24 10:25:30;;;;;;;11.32;5.25;;;;;;;19.78;47.01;95389.16;10365057;28;20034;-55
2021/12/24 10:31:00;;;;;;;10.60;5.25;;;;;;;19.81;47.46;95366.81;10345454;28;20061;-50
2021/12/24 10:36:20;;;;;;;10.45;5.30;;;;;;;19.83;46.98;95351.03;10350555;28;20049;-51
2021/12/24 10:41:45;;;;;;;8.90;4.78;;;;;;;19.87;47.09;95362.66;10358364;28;20077;-56
2021/12/24 10:47:04;;;;;;;9.68;4.82;;;;;;;19.92;47.10;95353.50;10356137;28;20069;-49
2021/12/24 10:57:48;;;;;;;9.38;5.03;;;;;;;19.99;47.00;95350.13;10354887;28;20426;-48
2021/12/24 11:03:13;;;;;;;7.57;4.07;;;;;;;20.05;44.89;95348.66;10369001;28;20044;-53
2021/12/24 11:08:33;;;;;;;8.18;4.00;;;;;;;20.12;44.22;95354.19;10329999;28;20501;-50
2021/12/24 11:13:53;;;;;;;23.55;8.05;;;;;;;20.18;43.59;95336.53;10355602;28;20421;-50
2021/12/24 11:19:13;;;;;;;12.40;5.00;;;;;;;20.15;42.93;95345.38;10353594;28;20075;-53
2021/12/24 11:24:33;;;;;;;27.85;8.45;;;;;;;20.18;45.15;95354.69;10369351;28;20046;-49
2021/12/24 11:29:53;;;;;;;21.95;7.95;;;;;;;20.21;46.32;95349.31;10355613;28;20049;-49
2021/12/24 11:35:13;;;;;;;21.02;8.50;;;;;;;20.27;46.95;95363.31;10355648;28;20482;-48
2021/12/24 11:40:33;;;;;;;20.85;7.47;;;;;;;20.31;47.29;95356.03;10371543;28;20029;-50
2021/12/24 11:45:56;;;;;;;9.75;4.45;;;;;;;20.33;44.84;95357.22;10357682;28;20121;-48
2021/12/24 11:51:18;;;;;;;6.80;3.17;;;;;;;20.32;41.92;95352.94;10360703;28;20148;-49
2021/12/24 11:56:41;;;;;;;5.57;3.13;;;;;;;20.28;42.36;95360.22;10361987;28;20050;-50
2021/12/24 12:02:00;;;;;;;9.90;4.30;;;;;;;20.30;42.60;95349.06;10363403;28;20104;-50
2021/12/24 12:07:24;;;;;;;13.45;4.30;;;;;;;20.32;42.72;95354.88;10358791;28;20061;-50
2021/12/24 12:12:43;;;;;;;14.60;3.90;;;;;;;20.35;42.76;95346.81;10325514;28;20242;-50
2021/12/24 12:18:04;;;;;;;13.73;4.82;;;;;;;20.35;42.78;95354.94;10319409;28;20061;-50
2021/12/24 12:29:18;;;;;;;17.25;5.30;;;;;;;20.37;42.83;95356.50;10318727;28;20054;-50
2021/12/24 12:34:43;;;;;;;12.35;4.82;;;;;;;20.38;42.86;95363.47;10319802;28;20045;-50
2021/12/24 12:40:30;;;;;;;14.75;4.65;;;;;;;20.37;43.04;95360.00;10335894;28;20118;-50
2021/12/24 12:45:55;;;;;;;13.88;4.78;;;;;;;20.37;43.06;95367.31;10322997;28;20058;-52
2021/12/24 12:51:16;;;;;;;10.55;4.50;;;;;;;20.35;43.07;95357.63;10325996;28;20054;-50
2021/12/24 12:56:35;;;;;;;13.35;4.88;;;;;;;20.35;43.13;95367.69;10344215;28;20038;-50
2021/12/24 13:01:56;;;;;;;13.98;4.60;;;;;;;20.34;43.30;95366.88;10331070;28;20477;-51
2021/12/24 13:07:21;;;;;;;11.77;4.72;;;;;;;20.33;43.14;95354.53;10371289;28;20061;-50
2021/12/24 13:12:41;;;;;;;11.57;4.50;;;;;;;20.34;43.29;95360.69;10424550;28;20037;-53
2021/12/24 13:18:05;;;;;;;9.70;4.60;;;;;;;20.32;43.26;95361.06;10411649;28;20072;-51
2021/12/24 13:23:26;;;;;;;9.95;4.47;;;;;;;20.31;43.27;95356.81;10411361;28;20046;-50
2021/12/24 13:29:12;;;;;;;11.55;4.18;;;;;;;20.31;43.39;95359.50;10411330;28;20788;-50
2021/12/24 13:34:32;;;;;;;11.50;4.15;;;;;;;20.31;43.24;95359.50;10411374;28;20049;-50
2021/12/24 13:39:52;;;;;;;11.15;4.10;;;;;;;20.30;43.39;95365.28;10410649;28;20080;-50
2021/12/24 13:45:12;;;;;;;8.10;4.00;;;;;;;20.29;43.28;95363.75;10410471;28;20124;-50
2021/12/24 13:56:20;;;;;;;11.02;4.38;;;;;;;20.28;43.53;95371.03;10410229;28;20439;-50
2021/12/24 14:01:42;;;;;;;8.00;3.70;;;;;;;20.27;43.40;95380.31;10408778;28;20524;-50
2021/12/24 14:07:01;;;;;;;8.32;3.55;;;;;;;20.27;43.39;95382.25;10409086;28;20057;-50
2021/12/24 14:12:26;;;;;;;9.00;3.40;;;;;;;20.24;43.44;95383.72;10407214;28;20049;-51
2021/12/24 14:18:17;;;;;;;10.07;3.80;;;;;;;20.23;43.56;95386.78;10402603;28;20041;-51
2021/12/24 14:23:31;;;;;;;8.63;3.70;;;;;;;20.22;43.83;95386.03;10391748;28;20126;-50
2021/12/24 14:28:52;;;;;;;6.47;3.10;;;;;;;20.22;44.07;95396.84;10403147;28;20046;-50
2021/12/24 14:34:11;;;;;;;5.28;2.50;;;;;;;20.17;40.36;95393.66;10398330;28;20693;-49
2021/12/24 14:39:35;;;;;;;7.15;2.95;;;;;;;20.13;42.49;95388.19;10391429;28;20493;-50
2021/12/24 14:45:17;;;;;;;5.80;3.20;;;;;;;20.13;42.57;95382.78;10404993;28;20061;-50
2021/12/24 14:50:37;;;;;;;9.10;3.65;;;;;;;20.11;42.76;95390.47;10404901;28;20115;-50
2021/12/24 14:56:09;;;;;;;8.95;3.20;;;;;;;20.11;42.70;95395.88;10390608;28;20640;-50
2021/12/24 15:01:33;;;;;;;9.27;3.53;;;;;;;20.10;43.01;95408.63;10416165;28;20052;-50
2021/12/24 15:06:53;;;;;;;6.03;3.35;;;;;;;20.09;42.97;95404.38;10394307;28;20058;-50
2021/12/24 15:12:16;;;;;;;7.68;3.60;;;;;;;20.09;43.12;95414.38;10377787;28;20052;-50
2021/12/24 15:17:40;;;;;;;8.95;3.50;;;;;;;20.08;43.07;95410.13;10365720;28;20053;-50
2021/12/24 15:23:00;;;;;;;9.52;3.50;;;;;;;20.06;43.12;95405.09;10365953;28;20563;-50
2021/12/24 15:28:23;;;;;;;8.38;3.33;;;;;;;20.05;43.19;95392.72;10364891;28;20062;-50
2021/12/24 15:33:43;;;;;;;6.38;3.03;;;;;;;20.03;43.22;95396.91;10365608;28;20046;-50
2021/12/24 15:39:02;;;;;;;9.10;3.38;;;;;;;20.03;43.28;95405.03;10378407;28;20042;-49
2021/12/24 15:44:22;;;;;;;9.00;3.30;;;;;;;20.01;43.37;95385.69;10364473;28;20049;-50
2021/12/24 15:49:42;;;;;;;6.13;3.03;;;;;;;20.00;43.43;95373.31;10365032;28;20416;-50
2021/12/24 15:55:01;;;;;;;7.13;3.17;;;;;;;19.97;43.58;95360.50;10349481;28;20046;-50
2021/12/24 16:00:20;;;;;;;6.50;3.10;;;;;;;19.95;43.46;95364.38;10377822;28;20042;-50
2021/12/24 16:05:42;;;;;;;8.25;3.00;;;;;;;19.94;43.56;95359.31;10374163;28;20058;-50
2021/12/24 16:11:03;;;;;;;6.57;2.80;;;;;;;19.93;43.52;95360.44;10364230;28;20060;-50
2021/12/24 16:16:24;;;;;;;5.38;3.00;;;;;;;19.92;43.64;95370.50;10377385;28;20092;-50
2021/12/24 16:21:43;;;;;;;5.15;2.97;;;;;;;19.91;43.62;95368.91;10364139;28;20050;-49
2021/12/24 16:27:04;;;;;;;5.13;2.75;;;;;;;19.88;43.77;95358.06;10376383;28;20621;-49
2021/12/24 16:32:25;;;;;;;5.45;2.60;;;;;;;19.89;43.79;95373.13;10363614;28;20065;-50
2021/12/24 16:37:46;;;;;;;5.28;2.80;;;;;;;19.87;43.79;95351.09;10362963;28;20046;-50
2021/12/24 16:43:11;;;;;;;5.95;2.60;;;;;;;19.85;44.03;95351.44;10363579;28;20061;-49
2021/12/24 16:48:31;;;;;;;5.53;2.65;;;;;;;19.83;43.87;95367.25;10363390;28;20089;-50
2021/12/24 16:53:50;;;;;;;4.50;2.50;;;;;;;19.83;43.88;95344.84;10363240;28;20046;-50
2021/12/24 16:59:10;;;;;;;5.13;2.50;;;;;;;19.81;43.95;95356.00;10363413;28;20066;-51
2021/12/24 17:04:30;;;;;;;5.22;2.60;;;;;;;19.82;44.06;95351.41;10363223;28;20050;-50
2021/12/24 17:09:49;;;;;;;5.72;2.75;;;;;;;19.81;43.96;95353.31;10362399;28;20072;-50
2021/12/24 17:15:10;;;;;;;5.03;2.60;;;;;;;19.81;43.95;95350.59;10362720;28;20621;-50
2021/12/24 17:20:30;;;;;;;4.72;2.80;;;;;;;19.81;44.08;95350.59;10362851;28;20452;-50
2021/12/24 17:25:51;;;;;;;4.15;2.55;;;;;;;19.83;44.22;95352.94;10362758;28;20073;-50
2021/12/24 17:31:11;;;;;;;4.28;2.40;;;;;;;19.83;44.00;95347.53;10362601;28;20058;-50
2021/12/24 17:36:30;;;;;;;3.60;2.13;;;;;;;19.84;44.04;95351.81;10363320;28;20404;-50
2021/12/24 17:41:50;;;;;;;4.22;2.53;;;;;;;19.85;43.96;95340.63;10370045;28;20060;-51
2021/12/24 17:47:10;;;;;;;3.65;2.50;;;;;;;19.86;43.99;95336.81;10383065;28;20042;-50
2021/12/24 17:52:30;;;;;;;3.58;2.33;;;;;;;19.88;44.08;95339.16;10369598;28;20084;-50
2021/12/24 17:57:50;;;;;;;4.32;2.17;;;;;;;19.91;44.01;95346.53;10369300;28;20050;-50
2021/12/24 18:03:09;;;;;;;5.78;2.42;;;;;;;19.92;43.98;95338.06;10369203;28;20123;-50
2021/12/24 18:08:29;;;;;;;4.05;2.50;;;;;;;19.94;43.94;95338.47;10368194;28;20065;-50
2021/12/24 18:13:50;;;;;;;4.63;2.40;;;;;;;19.99;44.01;95333.91;10381703;28;20044;-50
2021/12/24 18:19:09;;;;;;;4.28;2.30;;;;;;;19.99;44.09;95334.66;10368427;28;20061;-49
2021/12/24 18:24:29;;;;;;;2.88;1.90;;;;;;;20.03;44.00;95340.94;10367581;28;20061;-50
2021/12/24 18:29:48;;;;;;;3.60;1.98;;;;;;;20.03;43.92;95343.66;10368087;28;20594;-50
2021/12/24 18:35:09;;;;;;;3.58;2.20;;;;;;;20.08;42.72;95342.56;10365354;28;20096;-50
2021/12/24 18:40:30;;;;;;;5.45;2.40;;;;;;;20.12;43.49;95343.38;10351721;28;20054;-50
2021/12/24 18:45:50;;;;;;;5.20;2.50;;;;;;;20.17;43.57;95348.50;10368537;28;20038;-53
2021/12/24 18:51:09;;;;;;;7.13;2.70;;;;;;;20.24;44.36;95353.22;10367830;28;20041;-50
2021/12/24 18:56:29;;;;;;;7.28;3.75;;;;;;;20.29;44.19;95356.41;10351572;28;20066;-51
2021/12/24 19:01:48;;;;;;;5.72;3.10;;;;;;;20.34;44.57;95366.88;10355592;28;20054;-51
2021/12/24 19:07:09;;;;;;;4.00;2.72;;;;;;;20.39;44.67;95370.44;10363218;28;20064;-51
2021/12/24 19:12:28;;;;;;;4.10;2.65;;;;;;;20.42;44.50;95369.69;10368511;28;20061;-52
2021/12/24 19:17:50;;;;;;;6.47;2.80;;;;;;;20.43;44.53;95380.16;10354404;28;20041;-50
2021/12/24 19:23:10;;;;;;;6.90;3.03;;;;;;;20.45;44.44;95385.22;10355532;28;20060;-58
2021/12/24 19:28:29;;;;;;;7.50;3.40;;;;;;;20.48;44.62;95381.78;10356024;28;20485;-54
2021/12/24 19:33:50;;;;;;;5.90;3.08;;;;;;;20.52;44.86;95382.59;10347178;28;20501;-50
2021/12/24 19:39:09;;;;;;;6.22;3.05;;;;;;;20.53;44.85;95378.75;10351741;28;20054;-50
2021/12/24 19:44:30;;;;;;;8.13;3.40;;;;;;;20.51;44.65;95364.81;10374175;28;20045;-52
2021/12/24 19:49:51;;;;;;;8.25;3.95;;;;;;;20.53;45.16;95373.34;10357314;28;20045;-50
2021/12/24 19:55:13;;;;;;;9.98;3.90;;;;;;;20.56;45.37;95361.78;10354049;28;20183;-52
2021/12/24 20:00:33;;;;;;;7.03;3.90;;;;;;;20.58;45.85;95354.09;10369367;28;20065;-56
2021/12/24 20:05:52;;;;;;;9.88;4.65;;;;;;;20.59;46.13;95365.69;10362510;28;20065;-54
2021/12/24 20:11:14;;;;;;;9.88;4.13;;;;;;;20.58;46.05;95358.72;10353873;28;20482;-51
2021/12/24 20:16:33;;;;;;;9.07;3.90;;;;;;;20.58;46.19;95364.13;10355775;28;20045;-52
2021/12/24 20:21:53;;;;;;;9.18;3.90;;;;;;;20.58;46.17;95373.06;10342451;28;20046;-52
2021/12/24 20:27:12;;;;;;;4.68;3.58;;;;;;;20.60;46.22;95378.09;10363664;28;20096;-50
2021/12/24 20:32:32;;;;;;;7.28;3.70;;;;;;;20.61;46.39;95368.84;10361442;28;20050;-54
2021/12/24 20:37:53;;;;;;;6.53;3.17;;;;;;;20.61;46.38;95377.75;10374218;28;20054;-50
2021/12/24 20:43:14;;;;;;;7.10;3.47;;;;;;;20.60;46.43;95373.50;10374036;28;20378;-51
2021/12/24 20:48:35;;;;;;;13.15;3.40;;;;;;;20.61;46.71;95366.91;10358438;28;20053;-52
2021/12/24 20:53:54;;;;;;;4.97;3.35;;;;;;;20.61;46.88;95360.75;10370669;28;20046;-54
2021/12/24 20:59:14;;;;;;;5.72;3.10;;;;;;;20.61;46.92;95363.44;10371317;28;20053;-54
2021/12/24 21:04:34;;;;;;;4.78;3.30;;;;;;;20.61;46.97;95353.38;10357661;28;20061;-50
2021/12/24 21:09:54;;;;;;;5.38;3.20;;;;;;;20.60;46.85;95357.25;10383455;28;20057;-52
2021/12/24 21:15:15;;;;;;;4.72;3.20;;;;;;;20.60;47.06;95357.25;10405881;28;20049;-52
2021/12/24 21:20:35;;;;;;;4.97;3.08;;;;;;;20.60;46.96;95395.13;10389917;28;20115;-50
2021/12/24 21:25:54;;;;;;;4.72;3.10;;;;;;;20.59;46.76;95398.97;10396508;28;20064;-50
2021/12/24 21:31:13;;;;;;;3.38;2.70;;;;;;;20.58;46.85;95426.34;10389128;28;20041;-51
2021/12/24 21:36:33;;;;;;;5.55;3.40;;;;;;;20.58;46.69;95434.47;10395469;28;20053;-50
2021/12/24 21:41:54;;;;;;;3.53;3.13;;;;;;;20.58;46.86;95443.41;10391775;28;20046;-51
2021/12/24 21:47:14;;;;;;;5.35;2.90;;;;;;;20.57;46.83;95452.63;10395085;28;20047;-53
2021/12/24 21:52:34;;;;;;;3.42;2.72;;;;;;;20.57;46.75;95471.59;10399247;28;20045;-54
2021/12/24 21:57:54;;;;;;;4.45;3.03;;;;;;;20.55;47.08;95474.63;10405086;28;20053;-51
2021/12/24 22:08:41;;;;;;;5.70;2.80;;;;;;;20.55;46.69;95503.63;10403760;28;20163;-50
2021/12/24 22:14:05;;;;;;;4.25;2.90;;;;;;;20.54;46.69;95502.84;10405219;28;20248;-51
2021/12/24 22:19:25;;;;;;;6.88;2.80;;;;;;;20.54;46.84;95515.56;10404488;28;20054;-49
2021/12/24 22:24:45;;;;;;;4.72;3.03;;;;;;;20.54;47.11;95527.22;10419288;28;20052;-51
2021/12/24 22:30:10;;;;;;;7.25;3.55;;;;;;;20.53;46.80;95522.16;10406537;28;20255;-53
2021/12/24 22:35:29;;;;;;;5.88;3.65;;;;;;;20.53;47.13;95538.38;10406497;28;20053;-51
2021/12/24 22:40:49;;;;;;;8.32;3.78;;;;;;;20.53;47.09;95531.03;10406708;28;20508;-49
2021/12/24 22:46:11;;;;;;;5.82;3.78;;;;;;;20.52;46.77;95543.03;10388090;28;20045;-49
2021/12/24 22:57:11;;;;;;;5.55;2.65;;;;;;;20.50;45.77;95552.63;10403896;28;20049;-49
2021/12/24 23:02:30;;;;;;;40.22;20.58;;;;;;;20.47;45.82;95564.16;10416528;28;20030;-51
2021/12/24 23:07:50;;;;;;;20.70;10.77;;;;;;;20.44;45.63;95562.19;10392755;28;20058;-50
2021/12/24 23:13:11;;;;;;;14.57;7.72;;;;;;;20.42;45.51;95567.16;10392843;28;20050;-50
2021/12/24 23:18:31;;;;;;;14.40;7.10;;;;;;;20.39;45.58;95582.19;10402477;28;20199;-50
2021/12/24 23:23:51;;;;;;;13.57;7.13;;;;;;;20.38;45.45;95587.97;10400105;28;20052;-52
2021/12/24 23:29:10;;;;;;;12.75;6.35;;;;;;;20.37;45.47;95602.63;10403147;28;20404;-52
2021/12/24 23:34:30;;;;;;;11.98;6.70;;;;;;;20.35;45.48;95601.06;10399331;28;20057;-52
2021/12/24 23:39:50;;;;;;;15.55;6.65;;;;;;;20.34;45.97;95604.91;10402964;28;20056;-50
2021/12/24 23:45:22;;;;;;;10.02;6.03;;;;;;;20.32;46.17;95604.47;10429996;28;20045;-50
2021/12/24 23:50:41;;;;;;;12.02;5.93;;;;;;;20.30;46.01;95606.75;10420423;28;20042;-50
2021/12/24 23:56:08;;;;;;;11.02;5.38;;;;;;;20.30;46.34;95620.28;10404942;28;20587;-50
